createdAt,value
2022-07-29T00:02:23.298Z,101514.53
2022-07-29T00:04:50.359Z,101507.69
2022-07-29T00:07:18.995Z,101505.47
2022-07-29T00:09:52.043Z,101514.13
2022-07-29T00:12:21.479Z,101515.56
2022-07-29T00:14:52.684Z,101516.91
2022-07-29T00:17:19.469Z,101514.78
2022-07-29T00:19:46.129Z,101506.47
2022-07-29T00:22:12.852Z,101514.22
2022-07-29T00:24:39.481Z,101509.38
2022-07-29T00:27:09.072Z,101509.00
2022-07-29T00:29:35.864Z,101513.06
2022-07-29T00:32:03.644Z,101501.56
2022-07-29T00:34:48.932Z,101498.25
2022-07-29T00:37:15.634Z,101493.22
2022-07-29T00:39:42.602Z,101493.03
2022-07-29T00:42:09.281Z,101493.13
2022-07-29T00:44:39.651Z,101484.41
2022-07-29T00:47:08.481Z,101480.31
2022-07-29T00:49:35.634Z,101492.06
2022-07-29T00:52:03.420Z,101489.59
2022-07-29T00:54:30.300Z,101489.19
2022-07-29T00:56:58.971Z,101489.06
2022-07-29T00:59:26.631Z,101495.25
2022-07-29T01:02:02.110Z,101489.75
2022-07-29T01:04:30.906Z,101487.13
2022-07-29T01:06:57.661Z,101487.72
2022-07-29T01:09:42.849Z,101477.44
2022-07-29T01:12:11.582Z,101486.78
2022-07-29T01:14:41.025Z,101482.16
2022-07-29T01:17:18.825Z,101481.00
2022-07-29T01:20:07.733Z,101481.94
2022-07-29T01:22:58.077Z,101478.66
2022-07-29T01:25:39.915Z,101470.41
2022-07-29T01:28:18.683Z,101468.22
2022-07-29T01:30:46.633Z,101464.53
2022-07-29T01:33:36.379Z,101462.41
2022-07-29T01:36:09.098Z,101454.03
2022-07-29T01:38:37.041Z,101457.34
2022-07-29T01:41:06.936Z,101453.69
2022-07-29T01:43:42.700Z,101437.81
2022-07-29T01:46:15.557Z,101434.53
2022-07-29T01:48:47.066Z,101415.72
2022-07-29T01:51:21.908Z,101408.59
2022-07-29T01:53:51.613Z,101413.19
2022-07-29T01:56:26.937Z,101397.94
2022-07-29T01:59:01.205Z,101405.78
2022-07-29T02:01:36.026Z,101399.59
2022-07-29T02:04:07.794Z,101404.59
2022-07-29T02:06:37.008Z,101399.03
2022-07-29T02:09:05.461Z,101393.53
2022-07-29T02:11:36.708Z,101391.16
2022-07-29T02:14:05.095Z,101392.56
2022-07-29T02:16:33.609Z,101389.06
2022-07-29T02:19:02.132Z,101394.78
2022-07-29T02:21:29.325Z,101395.22
2022-07-29T02:23:57.150Z,101400.16
2022-07-29T02:26:27.722Z,101396.56
2022-07-29T02:28:56.157Z,101399.19
2022-07-29T02:31:24.298Z,101405.91
2022-07-29T02:33:51.537Z,101414.00
2022-07-29T02:36:19.020Z,101406.72
2022-07-29T02:38:52.254Z,101402.56
2022-07-29T02:41:21.176Z,101415.94
2022-07-29T02:43:49.094Z,101412.66
2022-07-29T02:46:28.754Z,101409.53
2022-07-29T02:49:03.185Z,101416.56
2022-07-29T02:51:44.007Z,101413.75
2022-07-29T02:54:12.913Z,101416.56
2022-07-29T02:56:56.669Z,101412.69
2022-07-29T02:59:29.766Z,101417.41
2022-07-29T03:01:58.917Z,101411.63
2022-07-29T03:04:29.648Z,101406.06
2022-07-29T03:13:52.529Z,101396.91
2022-07-29T03:16:20.190Z,101407.84
2022-07-29T03:18:47.805Z,101402.75
2022-07-29T03:21:18.370Z,101410.91
2022-07-29T03:23:49.922Z,101401.84
2022-07-29T03:26:16.524Z,101397.75
2022-07-29T03:28:43.057Z,101400.56
2022-07-29T03:31:09.579Z,101398.53
2022-07-29T03:33:36.110Z,101402.34
2022-07-29T03:36:03.511Z,101402.47
2022-07-29T03:38:31.616Z,101385.69
2022-07-29T03:41:02.551Z,101391.56
2022-07-29T03:43:31.905Z,101393.06
2022-07-29T03:46:02.092Z,101387.22
2022-07-29T03:48:30.737Z,101380.34
2022-07-29T03:58:13.779Z,101383.31
2022-07-29T04:00:51.030Z,101377.19
2022-07-29T04:03:20.144Z,101374.78
2022-07-29T04:05:58.604Z,101382.97
2022-07-29T04:08:28.414Z,101383.81
2022-07-29T04:10:56.049Z,101385.63
2022-07-29T04:13:29.211Z,101383.91
2022-07-29T04:15:58.749Z,101387.75
2022-07-29T04:18:28.774Z,101379.06
2022-07-29T04:21:02.062Z,101387.41
2022-07-29T04:23:33.575Z,101382.97
2022-07-29T04:26:01.431Z,101396.78
2022-07-29T04:28:28.070Z,101404.53
2022-07-29T04:30:54.679Z,101403.38
2022-07-29T04:33:21.299Z,101401.22
2022-07-29T04:37:14.725Z,101399.94
2022-07-29T04:39:43.488Z,101402.50
2022-07-29T04:42:15.914Z,101395.66
2022-07-29T04:51:57.679Z,101395.13
2022-07-29T04:54:30.563Z,101400.38
2022-07-29T04:57:05.496Z,101407.34
2022-07-29T04:59:32.285Z,101405.44
2022-07-29T05:01:58.939Z,101406.97
2022-07-29T05:04:25.923Z,101402.94
2022-07-29T05:07:04.579Z,101404.25
2022-07-29T05:09:35.696Z,101402.03
2022-07-29T05:12:14.301Z,101396.19
2022-07-29T05:14:50.964Z,101395.19
2022-07-29T05:17:22.944Z,101396.06
2022-07-29T05:20:03.779Z,101403.53
2022-07-29T05:22:33.236Z,101396.88
2022-07-29T05:25:43.070Z,101401.03
2022-07-29T05:28:32.647Z,101382.84
2022-07-29T05:31:16.547Z,101391.75
2022-07-29T05:34:17.352Z,101377.28
2022-07-29T05:36:52.507Z,101387.31
2022-07-29T05:39:48.494Z,101388.50
2022-07-29T05:42:15.938Z,101380.06
2022-07-29T05:45:01.007Z,101380.06
2022-07-29T05:47:27.698Z,101378.69
2022-07-29T05:49:55.097Z,101373.91
2022-07-29T05:52:22.188Z,101375.69
2022-07-29T05:54:48.822Z,101379.50
2022-07-29T05:57:22.964Z,101383.34
2022-07-29T05:59:50.221Z,101388.78
2022-07-29T06:02:16.879Z,101382.78
2022-07-29T06:04:43.605Z,101386.25
2022-07-29T06:07:10.166Z,101394.09
2022-07-29T06:09:44.148Z,101391.84
2022-07-29T06:12:11.002Z,101405.22
2022-07-29T06:14:39.036Z,101396.75
2022-07-29T06:17:06.394Z,101405.25
2022-07-29T06:19:34.835Z,101390.94
2022-07-29T06:22:01.266Z,101394.34
2022-07-29T06:24:28.172Z,101392.97
2022-07-29T06:26:54.696Z,101391.34
2022-07-29T06:29:21.236Z,101389.03
2022-07-29T06:31:47.764Z,101390.16
2022-07-29T06:34:14.676Z,101392.28
2022-07-29T06:36:41.897Z,101390.53
2022-07-29T06:39:08.733Z,101385.06
2022-07-29T06:41:35.091Z,101380.41
2022-07-29T06:44:01.468Z,101391.97
2022-07-29T06:46:28.628Z,101385.28
2022-07-29T06:48:55.259Z,101381.19
2022-07-29T06:51:23.244Z,101391.06
2022-07-29T06:54:00.494Z,101383.25
2022-07-29T06:56:39.315Z,101382.72
2022-07-29T06:59:06.872Z,101391.59
2022-07-29T07:01:33.529Z,101388.84
2022-07-29T07:03:59.917Z,101402.66
2022-07-29T07:06:26.288Z,101406.06
2022-07-29T07:08:52.718Z,101394.88
2022-07-29T07:11:19.117Z,101401.38
2022-07-29T07:13:45.501Z,101396.84
2022-07-29T07:16:11.972Z,101400.88
2022-07-29T07:18:38.380Z,101391.19
2022-07-29T07:21:06.093Z,101402.94
2022-07-29T07:23:32.546Z,101397.63
2022-07-29T07:25:59.075Z,101395.06
2022-07-29T07:28:25.714Z,101389.13
2022-07-29T07:30:52.758Z,101393.84
2022-07-29T07:33:19.636Z,101386.03
2022-07-29T07:35:46.255Z,101384.59
2022-07-29T07:38:12.693Z,101391.72
2022-07-29T07:40:39.397Z,101394.69
2022-07-29T07:43:05.789Z,101381.94
2022-07-29T07:45:34.899Z,101382.78
2022-07-29T07:48:01.371Z,101379.34
2022-07-29T07:50:27.945Z,101378.09
2022-07-29T07:52:58.441Z,101381.00
2022-07-29T07:55:24.889Z,101375.31
2022-07-29T07:57:51.321Z,101371.28
2022-07-29T08:00:23.839Z,101369.03
2022-07-29T08:03:22.984Z,101357.94
2022-07-29T08:05:51.896Z,101358.16
2022-07-29T08:08:18.924Z,101365.09
2022-07-29T08:17:35.652Z,101359.88
2022-07-29T08:20:10.900Z,101354.31
2022-07-29T08:22:39.807Z,101351.34
2022-07-29T08:25:09.955Z,101347.59
2022-07-29T08:27:44.364Z,101347.25
2022-07-29T08:30:29.514Z,101344.88
2022-07-29T08:36:42.809Z,101344.84
2022-07-29T08:42:39.497Z,101340.78
2022-07-29T08:52:06.865Z,101325.88
2022-07-29T08:57:38.078Z,101325.50
2022-07-29T09:00:08.138Z,101325.63
2022-07-29T09:37:40.916Z,101322.38
2022-07-29T09:58:35.950Z,101305.75
2022-07-29T10:40:57.300Z,101291.09
2022-07-29T10:50:39.667Z,101284.66
2022-07-29T11:22:04.530Z,101229.47
2022-07-29T11:24:34.969Z,101225.06
2022-07-29T11:27:20.029Z,101274.34
2022-07-29T11:33:56.233Z,101239.06
2022-07-29T11:36:32.980Z,101230.78
2022-07-29T11:42:44.590Z,101254.59
2022-07-29T11:45:43.739Z,101238.50
2022-07-29T11:48:28.590Z,101225.25
2022-07-29T11:51:32.855Z,101220.13
2022-07-29T11:54:05.394Z,101242.38
2022-07-29T11:56:33.771Z,101236.63
2022-07-29T11:59:11.132Z,101220.75
2022-07-29T12:02:02.449Z,101215.56
2022-07-29T12:04:55.698Z,101238.84
2022-07-29T12:07:03.208Z,101227.31
2022-07-29T12:07:35.318Z,101211.47
2022-07-29T12:10:03.191Z,101223.06
2022-07-29T12:12:30.101Z,101224.16
2022-07-29T12:27:02.333Z,101194.06
2022-07-29T12:35:40.414Z,101182.59
2022-07-29T12:39:07.446Z,101208.91
2022-07-29T14:30:26.363Z,101107.16
2022-07-29T14:35:18.183Z,101111.53
2022-07-29T14:40:37.351Z,101092.53
2022-07-29T14:50:55.208Z,101099.72
2022-07-29T14:54:08.610Z,101084.50
2022-07-29T23:51:44.511Z,101095.75
2022-07-29T23:54:16.600Z,101076.53
